Ty Lotus — DSNU7 — position and weather

sailwx.info

Track history (hours):
 
Tides and Currents Weather Stations Pressure Air Temp Water Temp Dewpoint Dewpoint Depression Visibility Wind Speed Wind Dir Waves Ship Positions

Ty Lotus

Last reported at 2016-Aug-23 00:18 UTC. Time now 2016-Aug-24 11:56 UTC.
Position N 38°57' E 117°53'.

Length 80 m; draft 4.3 m.

Type: Cargo ship. MMSI: 440324000.

Date/timePositionNaut miles runAvg speedWind from/ knotsBaromVisibWave heightAir tempDewpointWater temp
2016-Aug-23 00:18N 38°57' E 117°53'6 7.3
2016-Aug-22 23:28N 38°59' E 117°46'0 0.1
2016-Aug-22 22:22N 38°59' E 117°45'0 0.0
2016-Aug-22 21:28N 38°59' E 117°45'0 0.0
2016-Aug-22 20:28N 38°59' E 117°45'0 0.0
2016-Aug-22 19:23N 38°59' E 117°45'0 0.0
2016-Aug-22 18:32N 38°59' E 117°45'0 0.0
2016-Aug-22 17:33N 38°59' E 117°45'0 0.0
2016-Aug-22 16:33N 38°59' E 117°45'0 0.0
2016-Aug-22 14:14N 38°59' E 117°45'0 0.0
2016-Aug-22 12:33N 38°59' E 117°46'66 5.9
2016-Aug-22 01:19N 38°45' E 119°09'19 8.9
2016-Aug-21 23:11N 38°41' E 119°33'10 9.0
2016-Aug-21 22:04N 38°44' E 119°45'5 9.9
2016-Aug-21 21:32N 38°44' E 119°52'1110.2
2016-Aug-21 20:29N 38°43' E 120°05'3210.6
2016-Aug-21 17:27N 38°39' E 120°46'910.0
2016-Aug-21 16:33N 38°36' E 120°57'29 9.5
2016-Aug-21 13:33N 38°23' E 121°30'27 9.2
2016-Aug-21 10:34N 38°12' E 122°01'10 9.8
2016-Aug-21 09:32N 38°07' E 122°12'  
2016-Aug-15 04:33N 34°35' E 135°10'1010.4
2016-Aug-15 03:33N 34°33' E 135°22'2 0.3
2016-Aug-14 22:08N 34°31' E 135°23'2 3.4
2016-Aug-14 21:32N 34°33' E 135°22'0 0.5
2016-Aug-14 20:33N 34°32' E 135°21'0 0.0
2016-Aug-14 19:33N 34°32' E 135°21'0 0.0
2016-Aug-14 18:33N 34°32' E 135°21'0 0.0
2016-Aug-14 17:33N 34°32' E 135°21'4 4.4
2016-Aug-14 16:33N 34°30' E 135°17'10 9.7
2016-Aug-14 15:33N 34°25' E 135°07'11 9.1
2016-Aug-14 14:20N 34°16' E 134°59'7 9.7
2016-Aug-14 13:33N 34°08' E 134°60'240 8.6
2016-Aug-13 09:33N 35°07' E 139°42'10 9.6
2016-Aug-13 08:33N 35°17' E 139°45'9 8.7
2016-Aug-13 07:34N 35°25' E 139°44'1110.6
2016-Aug-13 06:33N 35°32' E 139°54'9 8.8
2016-Aug-13 05:33N 35°41' E 139°59'0 0.2
2016-Aug-13 04:31N 35°41' E 139°58'0 0.0
2016-Aug-13 03:07N 35°41' E 139°58'0 0.0
2016-Aug-13 01:25N 35°41' E 139°58'0 0.0
2016-Aug-13 00:31N 35°41' E 139°58'  
Track history (hours):
 
Tides and Currents Weather Stations Pressure Air Temp Water Temp Dewpoint Dewpoint Depression Visibility Wind Speed Wind Dir Waves Ship Positions

Ty Lotus

Last reported at 2016-Aug-23 00:18 UTC. Time now 2016-Aug-24 11:56 UTC.
Position N 38°57' E 117°53'.

Length 80 m; draft 4.3 m.

Type: Cargo ship. MMSI: 440324000.

Date/timePositionNaut miles runAvg speedWind from/ knotsBaromVisibWave heightAir tempDewpointWater temp
2016-Aug-23 00:18N 38°57' E 117°53'6 7.3
2016-Aug-22 23:28N 38°59' E 117°46'0 0.1
2016-Aug-22 22:22N 38°59' E 117°45'0 0.0
2016-Aug-22 21:28N 38°59' E 117°45'0 0.0
2016-Aug-22 20:28N 38°59' E 117°45'0 0.0
2016-Aug-22 19:23N 38°59' E 117°45'0 0.0
2016-Aug-22 18:32N 38°59' E 117°45'0 0.0
2016-Aug-22 17:33N 38°59' E 117°45'0 0.0
2016-Aug-22 16:33N 38°59' E 117°45'0 0.0
2016-Aug-22 14:14N 38°59' E 117°45'0 0.0
2016-Aug-22 12:33N 38°59' E 117°46'66 5.9
2016-Aug-22 01:19N 38°45' E 119°09'19 8.9
2016-Aug-21 23:11N 38°41' E 119°33'10 9.0
2016-Aug-21 22:04N 38°44' E 119°45'5 9.9
2016-Aug-21 21:32N 38°44' E 119°52'1110.2
2016-Aug-21 20:29N 38°43' E 120°05'3210.6
2016-Aug-21 17:27N 38°39' E 120°46'910.0
2016-Aug-21 16:33N 38°36' E 120°57'29 9.5
2016-Aug-21 13:33N 38°23' E 121°30'27 9.2
2016-Aug-21 10:34N 38°12' E 122°01'10 9.8
2016-Aug-21 09:32N 38°07' E 122°12'  
2016-Aug-15 04:33N 34°35' E 135°10'1010.4
2016-Aug-15 03:33N 34°33' E 135°22'2 0.3
2016-Aug-14 22:08N 34°31' E 135°23'2 3.4
2016-Aug-14 21:32N 34°33' E 135°22'0 0.5
2016-Aug-14 20:33N 34°32' E 135°21'0 0.0
2016-Aug-14 19:33N 34°32' E 135°21'0 0.0
2016-Aug-14 18:33N 34°32' E 135°21'0 0.0
2016-Aug-14 17:33N 34°32' E 135°21'4 4.4
2016-Aug-14 16:33N 34°30' E 135°17'10 9.7
2016-Aug-14 15:33N 34°25' E 135°07'11 9.1
2016-Aug-14 14:20N 34°16' E 134°59'7 9.7
2016-Aug-14 13:33N 34°08' E 134°60'240 8.6
2016-Aug-13 09:33N 35°07' E 139°42'10 9.6
2016-Aug-13 08:33N 35°17' E 139°45'9 8.7
2016-Aug-13 07:34N 35°25' E 139°44'1110.6
2016-Aug-13 06:33N 35°32' E 139°54'9 8.8
2016-Aug-13 05:33N 35°41' E 139°59'0 0.2
2016-Aug-13 04:31N 35°41' E 139°58'0 0.0
2016-Aug-13 03:07N 35°41' E 139°58'0 0.0
2016-Aug-13 01:25N 35°41' E 139°58'0 0.0
2016-Aug-13 00:31N 35°41' E 139°58'  

Dump ship's entire track history